Time;durP1;ratioP1;P1;durP2;ratioP2;P2;SDS_P1;SDS_P2;PMS_P1;PMS_P2;Temp;Humidity;BMP_temperature;BMP_pressure;BME280_temperature;BME280_humidity;BME280_pressure;Samples;Min_cycle;Max_cycle;Signal;HPM_P1;HPM_P2
2021/07/11 00:00:16;;;;;;;4.83;4.30;;;24.80;57.80;;;;;;6358533;22;20355;-86
2021/07/11 00:02:44;;;;;;;4.03;3.73;;;24.80;57.80;;;;;;6358137;22;20416;-86
2021/07/11 00:05:16;;;;;;;5.20;4.70;;;24.80;57.80;;;;;;6361630;22;20374;-83
2021/07/11 00:08:04;;;;;;;4.60;4.20;;;24.80;57.80;;;;;;6334092;22;20436;-83
2021/07/11 00:10:41;;;;;;;4.97;4.10;;;24.80;57.70;;;;;;6333266;22;20443;-83
2021/07/11 00:13:08;;;;;;;5.60;4.80;;;24.70;57.70;;;;;;6334741;22;20429;-83
2021/07/11 00:15:40;;;;;;;4.20;3.80;;;24.70;58.30;;;;;;6335912;22;20375;-83
2021/07/11 00:18:11;;;;;;;4.23;3.93;;;24.80;57.90;;;;;;6334698;22;20374;-83
2021/07/11 00:20:48;;;;;;;4.20;3.90;;;24.80;57.80;;;;;;6335654;22;20398;-83
2021/07/11 00:23:21;;;;;;;4.53;4.13;;;24.80;57.70;;;;;;6310206;22;20374;-83
2021/07/11 00:25:51;;;;;;;4.23;3.93;;;24.70;57.70;;;;;;6334149;22;20394;-83
2021/07/11 00:28:20;;;;;;;4.63;4.23;;;24.70;57.70;;;;;;6335411;22;20390;-83
2021/07/11 00:30:50;;;;;;;5.00;4.50;;;24.70;57.70;;;;;;6336017;22;20367;-82
2021/07/11 00:33:16;;;;;;;3.87;3.57;;;24.70;57.60;;;;;;6335665;22;20395;-82
2021/07/11 00:35:45;;;;;;;4.87;4.37;;;24.80;57.70;;;;;;6334576;22;20452;-82
2021/07/11 00:38:14;;;;;;;5.00;4.50;;;24.70;57.60;;;;;;6335636;22;20379;-82
2021/07/11 00:40:46;;;;;;;5.43;4.40;;;24.70;57.60;;;;;;6336287;22;20390;-82
2021/07/11 00:43:13;;;;;;;4.63;4.23;;;24.80;57.70;;;;;;6335654;22;20844;-82
2021/07/11 00:45:44;;;;;;;4.27;3.97;;;24.70;57.60;;;;;;6310240;22;20366;-82
2021/07/11 00:48:18;;;;;;;5.33;4.70;;;24.80;57.70;;;;;;6334622;22;20420;-82
2021/07/11 00:50:46;;;;;;;4.50;3.90;;;24.80;57.70;;;;;;6335678;22;20394;-82
2021/07/11 00:53:14;;;;;;;6.23;4.70;;;24.80;57.70;;;;;;6335996;22;20453;-83
2021/07/11 00:55:50;;;;;;;4.73;4.33;;;24.70;57.60;;;;;;6362441;22;20375;-82
2021/07/11 01:01:41;;;;;;;5.57;4.77;;;24.70;57.70;;;;;;6325571;22;20389;-83
2021/07/11 01:04:20;;;;;;;4.63;4.13;;;24.70;57.60;;;;;;6331922;22;20438;-83
2021/07/11 01:06:54;;;;;;;4.10;3.80;;;24.70;57.70;;;;;;6331465;22;20410;-83
2021/07/11 01:09:50;;;;;;;4.73;4.20;;;24.70;57.70;;;;;;6332871;22;20382;-83
2021/07/11 01:12:26;;;;;;;4.50;4.10;;;24.70;57.70;;;;;;6313798;22;20406;-83
2021/07/11 01:14:53;;;;;;;4.63;4.23;;;24.70;57.60;;;;;;6333907;22;20367;-83
2021/07/11 01:17:25;;;;;;;5.60;4.50;;;24.70;57.60;;;;;;6333390;22;20406;-83
2021/07/11 01:20:10;;;;;;;4.10;3.80;;;24.60;57.50;;;;;;6333644;22;20807;-83
2021/07/11 01:22:46;;;;;;;4.67;4.27;;;24.70;57.50;;;;;;6332831;22;20378;-83
2021/07/11 01:25:40;;;;;;;4.47;4.10;;;24.60;57.50;;;;;;6333288;22;20405;-83
2021/07/11 01:28:11;;;;;;;4.50;4.20;;;24.60;57.40;;;;;;6316451;22;20441;-83
2021/07/11 01:30:37;;;;;;;4.30;4.00;;;24.60;57.50;;;;;;6334590;22;20387;-84
2021/07/11 01:33:13;;;;;;;4.33;3.93;;;24.60;57.50;;;;;;6334064;22;20379;-83
2021/07/11 01:36:00;;;;;;;5.10;4.60;;;24.60;57.50;;;;;;6361611;22;20378;-83
2021/07/11 01:38:27;;;;;;;4.77;3.80;;;24.60;57.40;;;;;;6334429;22;20405;-83
2021/07/11 01:40:55;;;;;;;5.00;3.87;;;24.60;57.40;;;;;;6335015;22;20382;-83
2021/07/11 01:43:23;;;;;;;5.03;4.00;;;24.60;57.40;;;;;;6335033;22;20390;-83
2021/07/11 01:45:53;;;;;;;5.00;4.60;;;24.70;57.50;;;;;;6332971;22;20432;-83
2021/07/11 01:48:21;;;;;;;4.60;4.20;;;24.60;57.40;;;;;;6360477;22;20651;-84
2021/07/11 01:50:56;;;;;;;4.90;4.50;;;24.60;57.40;;;;;;6333201;22;20381;-84
2021/07/11 01:53:34;;;;;;;8.87;4.43;;;24.60;57.50;;;;;;6333333;22;20371;-84
2021/07/11 01:56:10;;;;;;;5.20;4.73;;;24.60;57.50;;;;;;6332630;22;20434;-84
2021/07/11 01:58:39;;;;;;;4.53;3.93;;;24.60;57.50;;;;;;6332616;22;20419;-82
2021/07/11 02:01:14;;;;;;;4.40;4.10;;;24.50;57.50;;;;;;6330802;22;20374;-83
2021/07/11 02:03:57;;;;;;;4.77;4.37;;;24.60;57.60;;;;;;6332640;22;20397;-83
2021/07/11 02:06:25;;;;;;;5.50;4.30;;;24.50;57.50;;;;;;6332513;22;20414;-83
2021/07/11 02:08:55;;;;;;;4.20;3.90;;;24.50;57.60;;;;;;6332008;22;20442;-84
2021/07/11 02:11:24;;;;;;;5.10;4.70;;;24.50;57.50;;;;;;6331388;22;20406;-83
2021/07/11 02:14:00;;;;;;;4.73;4.33;;;24.50;57.60;;;;;;6332630;22;20371;-84
2021/07/11 02:16:37;;;;;;;4.70;4.30;;;24.50;57.60;;;;;;6332523;22;20379;-83
2021/07/11 02:19:04;;;;;;;4.70;3.80;;;24.50;57.60;;;;;;6330048;22;20370;-84
2021/07/11 02:21:31;;;;;;;3.80;3.50;;;24.50;57.70;;;;;;6331302;22;20410;-83
2021/07/11 02:24:12;;;;;;;4.70;4.30;;;24.50;57.70;;;;;;6330390;22;20470;-83
2021/07/11 02:26:40;;;;;;;4.37;3.97;;;24.50;57.70;;;;;;6330999;22;20434;-84
2021/07/11 02:29:08;;;;;;;5.37;4.37;;;24.50;57.70;;;;;;6331167;22;20427;-84
2021/07/11 02:31:36;;;;;;;4.70;4.30;;;24.50;57.80;;;;;;6331011;22;20379;-83
2021/07/11 02:34:04;;;;;;;8.23;4.57;;;24.40;57.70;;;;;;6329060;22;20386;-84
2021/07/11 03:25:51;;;;;;;4.87;4.47;;;24.30;58.00;;;;;;6289736;22;20513;-83
2021/07/11 03:28:28;;;;;;;4.40;4.00;;;24.30;58.10;;;;;;6268991;22;20388;-84
2021/07/11 03:30:55;;;;;;;4.20;3.90;;;24.30;58.10;;;;;;6269734;22;20360;-83
2021/07/11 03:33:24;;;;;;;4.63;3.37;;;24.30;58.20;;;;;;6269531;22;20384;-84
2021/07/11 03:36:03;;;;;;;7.10;3.93;;;24.30;58.20;;;;;;6269186;22;20372;-83
2021/07/11 03:38:40;;;;;;;4.50;4.10;;;24.30;58.20;;;;;;6268781;22;20360;-84
2021/07/11 03:41:18;;;;;;;4.37;4.00;;;24.30;58.30;;;;;;6295985;22;20375;-84
2021/07/11 03:43:49;;;;;;;4.80;3.60;;;24.30;58.30;;;;;;6269098;22;20368;-84
2021/07/11 03:46:19;;;;;;;5.20;4.70;;;24.20;58.30;;;;;;6269916;22;20440;-83
2021/07/11 03:48:58;;;;;;;5.20;4.27;;;24.30;58.40;;;;;;6296943;22;20444;-83
2021/07/11 03:51:33;;;;;;;3.97;3.57;;;24.30;58.40;;;;;;6269070;22;20379;-83
2021/07/11 03:54:00;;;;;;;5.63;3.87;;;24.30;59.00;;;;;;6269102;22;20365;-83
2021/07/11 03:56:41;;;;;;;;;;;;;;;;;;;;;
2021/07/11 03:59:10;;;;;;;5.43;3.80;;;24.30;58.50;;;;;;6295766;22;20380;-85
2021/07/11 04:01:40;;;;;;;4.50;3.83;;;24.20;58.40;;;;;;6268649;22;20388;-84
2021/07/11 04:04:15;;;;;;;4.43;4.03;;;24.20;58.40;;;;;;6295657;22;20368;-85
2021/07/11 04:06:51;;;;;;;4.10;3.70;;;24.30;58.60;;;;;;6296478;22;20388;-85
2021/07/11 04:09:20;;;;;;;5.57;4.60;;;24.30;58.50;;;;;;6269446;22;20423;-85
2021/07/11 04:11:48;;;;;;;4.20;3.70;;;24.30;58.60;;;;;;6269541;22;20850;-85
2021/07/11 04:14:22;;;;;;;4.00;3.70;;;24.20;58.50;;;;;;6270872;22;20390;-85
2021/07/11 04:17:14;;;;;;;4.50;4.10;;;24.20;58.50;;;;;;6270036;22;20376;-85
2021/07/11 04:20:00;;;;;;;3.83;3.50;;;24.30;58.50;;;;;;6266214;22;20377;-85
2021/07/11 04:22:27;;;;;;;4.90;4.20;;;24.30;58.60;;;;;;6270296;22;20407;-85
2021/07/11 04:25:34;;;;;;;4.47;3.87;;;24.20;58.60;;;;;;6202954;23;20428;-85
2021/07/11 04:28:07;;;;;;;5.03;4.40;;;24.30;58.60;;;;;;6140770;23;20416;-85
2021/07/11 04:30:33;;;;;;;3.80;3.50;;;24.20;58.60;;;;;;6139363;23;20369;-85
2021/07/11 04:33:00;;;;;;;4.10;3.80;;;24.20;58.60;;;;;;6140554;22;20381;-85
2021/07/11 04:35:27;;;;;;;4.30;3.90;;;24.20;58.60;;;;;;6139845;22;20438;-85
2021/07/11 04:37:53;;;;;;;4.70;4.30;;;24.20;58.60;;;;;;6139860;23;20476;-84
2021/07/11 04:40:23;;;;;;;4.40;4.07;;;24.20;58.60;;;;;;6139507;23;20417;-85
2021/07/11 04:42:50;;;;;;;4.00;3.70;;;24.20;58.70;;;;;;6140065;23;20376;-85
2021/07/11 04:45:22;;;;;;;5.70;3.80;;;24.20;58.70;;;;;;6139168;23;20396;-84
2021/07/11 04:47:50;;;;;;;4.90;4.43;;;24.20;58.70;;;;;;6139049;23;20420;-84
2021/07/11 04:50:20;;;;;;;4.57;4.17;;;24.20;58.70;;;;;;6115361;23;20381;-84
2021/07/11 04:52:46;;;;;;;5.27;4.13;;;24.20;58.80;;;;;;6139430;22;20391;-84
2021/07/11 04:55:18;;;;;;;4.53;4.13;;;24.20;58.80;;;;;;6140081;23;20438;-85
2021/07/11 04:57:44;;;;;;;4.70;4.27;;;24.20;58.80;;;;;;6139494;23;20770;-84
2021/07/11 05:00:14;;;;;;;6.57;4.10;;;24.20;58.80;;;;;;6140601;23;20384;-84
2021/07/11 05:02:46;;;;;;;4.97;4.37;;;24.20;58.90;;;;;;6140305;23;20417;-86
2021/07/11 05:05:16;;;;;;;4.83;4.27;;;24.20;58.90;;;;;;6149364;22;20385;-86
2021/07/11 05:07:44;;;;;;;4.93;4.43;;;24.20;58.90;;;;;;6141290;23;20892;-86
2021/07/11 05:10:11;;;;;;;3.93;3.63;;;24.20;59.00;;;;;;6141842;23;20370;-86
2021/07/11 05:12:40;;;;;;;5.60;4.13;;;24.20;59.00;;;;;;6141629;23;20373;-86
2021/07/11 05:15:08;;;;;;;4.07;3.67;;;24.20;59.00;;;;;;6140771;23;20388;-86
2021/07/11 05:17:34;;;;;;;4.57;4.17;;;24.20;59.10;;;;;;6141129;23;20393;-85
2021/07/11 05:20:02;;;;;;;4.70;4.30;;;24.20;59.10;;;;;;6141994;23;20388;-86
2021/07/11 05:22:30;;;;;;;4.63;4.23;;;24.20;59.20;;;;;;6142352;23;20399;-86
2021/07/11 05:24:57;;;;;;;5.30;4.80;;;24.20;59.20;;;;;;6143152;23;20409;-86
2021/07/11 05:27:27;;;;;;;5.03;4.00;;;24.20;59.20;;;;;;6142582;22;20493;-86
2021/07/11 05:29:53;;;;;;;5.10;4.70;;;24.20;59.20;;;;;;6145065;22;20397;-87
2021/07/11 05:32:22;;;;;;;4.10;3.70;;;24.30;59.60;;;;;;6142360;23;20405;-86
2021/07/11 05:34:48;;;;;;;6.10;5.10;;;24.20;59.30;;;;;;6141920;23;20471;-86
2021/07/11 05:37:15;;;;;;;4.60;4.20;;;24.20;59.40;;;;;;6143844;22;20385;-86
2021/07/11 05:39:43;;;;;;;4.50;4.10;;;24.20;59.30;;;;;;6142734;22;20393;-86
2021/07/11 05:42:12;;;;;;;5.50;4.37;;;24.20;59.40;;;;;;6143461;23;20392;-86
2021/07/11 05:44:41;;;;;;;4.10;3.70;;;24.20;59.50;;;;;;6141590;22;20413;-86
2021/07/11 05:47:08;;;;;;;4.30;4.00;;;24.20;59.40;;;;;;6116558;23;20425;-87
2021/07/11 05:49:52;;;;;;;3.90;3.60;;;24.20;59.60;;;;;;6116695;23;20381;-87
2021/07/11 05:52:18;;;;;;;3.83;3.53;;;24.20;59.60;;;;;;6141574;23;20391;-87
2021/07/11 05:54:48;;;;;;;3.20;3.00;;;24.20;59.70;;;;;;6140478;23;20836;-87
2021/07/11 05:57:14;;;;;;;4.87;3.90;;;24.20;59.70;;;;;;6140812;23;20392;-86
2021/07/11 05:59:46;;;;;;;5.23;3.77;;;24.20;59.70;;;;;;6142365;23;20449;-86
2021/07/11 06:02:13;;;;;;;4.93;3.20;;;24.20;59.70;;;;;;6142716;23;20365;-86
2021/07/11 06:04:39;;;;;;;3.43;3.13;;;24.20;59.80;;;;;;6140836;23;20729;-87
2021/07/11 06:07:07;;;;;;;4.20;3.30;;;24.20;59.90;;;;;;6141165;23;20417;-86
2021/07/11 06:09:36;;;;;;;3.30;3.00;;;24.20;59.90;;;;;;6141996;23;20168;-87
2021/07/11 06:12:02;;;;;;;3.13;2.93;;;24.20;59.90;;;;;;6140911;23;20381;-87
2021/07/11 06:14:28;;;;;;;2.87;2.67;;;24.20;60.00;;;;;;6140822;23;20377;-86
2021/07/11 06:16:55;;;;;;;2.90;2.70;;;24.20;60.00;;;;;;6141277;23;20385;-86
2021/07/11 06:19:23;;;;;;;2.80;2.47;;;24.20;60.00;;;;;;6141409;23;20252;-87
2021/07/11 06:21:49;;;;;;;3.63;2.50;;;24.20;60.00;;;;;;6140853;22;20386;-87
2021/07/11 06:24:15;;;;;;;3.50;2.20;;;24.20;60.00;;;;;;6178899;22;20530;-86
2021/07/11 06:26:42;;;;;;;3.03;2.40;;;24.30;60.30;;;;;;6269514;22;20713;-86
2021/07/11 06:29:09;;;;;;;2.57;2.37;;;24.20;60.10;;;;;;6270561;22;20407;-86
2021/07/11 06:31:35;;;;;;;2.80;2.60;;;24.20;60.20;;;;;;6270082;22;20383;-86
2021/07/11 06:34:04;;;;;;;2.50;2.30;;;24.20;60.30;;;;;;6269940;22;20373;-85
2021/07/11 06:36:33;;;;;;;2.20;2.00;;;24.20;60.30;;;;;;6270290;22;20442;-85
2021/07/11 06:39:04;;;;;;;2.20;1.80;;;24.20;60.20;;;;;;6295814;22;20380;-85
2021/07/11 06:48:03;;;;;;;3.20;1.90;;;24.20;60.30;;;;;;6173856;23;20480;-85
2021/07/11 06:50:34;;;;;;;1.63;1.53;;;24.10;60.30;;;;;;6149481;23;20760;-86
2021/07/11 06:53:10;;;;;;;2.00;1.70;;;24.20;60.30;;;;;;6149353;23;20384;-85
2021/07/11 06:55:41;;;;;;;3.03;2.10;;;24.20;60.40;;;;;;6150494;23;20372;-86
2021/07/11 06:58:07;;;;;;;1.90;1.70;;;24.20;60.50;;;;;;6148990;23;20419;-85
2021/07/11 07:00:33;;;;;;;1.37;1.23;;;24.20;60.30;;;;;;6174832;23;20414;-85
2021/07/11 07:03:09;;;;;;;1.60;1.50;;;24.20;60.40;;;;;;6148531;23;20395;-85
2021/07/11 07:05:35;;;;;;;1.60;1.50;;;24.20;60.40;;;;;;6149420;23;20403;-86
2021/07/11 07:08:07;;;;;;;1.53;1.43;;;24.20;60.40;;;;;;6174075;23;20451;-85
2021/07/11 07:10:35;;;;;;;1.53;1.40;;;24.20;60.50;;;;;;6148412;23;20415;-85
2021/07/11 07:13:04;;;;;;;1.50;1.40;;;24.20;60.40;;;;;;6149707;23;20755;-85
2021/07/11 07:15:34;;;;;;;1.83;1.73;;;24.10;60.30;;;;;;6124213;23;20388;-85
2021/07/11 07:18:01;;;;;;;1.50;1.30;;;24.20;60.50;;;;;;6173212;23;20399;-85
2021/07/11 07:20:33;;;;;;;1.57;1.40;;;24.20;60.40;;;;;;6142840;22;20396;-86
2021/07/11 07:23:03;;;;;;;1.97;1.67;;;24.20;60.50;;;;;;6269803;22;20698;-86
2021/07/11 07:25:31;;;;;;;1.50;1.40;;;24.20;60.40;;;;;;6171716;23;20416;-86
2021/07/11 07:28:01;;;;;;;1.40;1.30;;;24.20;60.40;;;;;;6141092;23;20439;-86
2021/07/11 07:30:33;;;;;;;1.93;1.73;;;24.20;60.50;;;;;;6140016;23;20377;-86
2021/07/11 07:33:01;;;;;;;1.70;1.40;;;24.20;60.40;;;;;;6140256;23;20384;-86
2021/07/11 07:35:36;;;;;;;2.07;1.40;;;24.20;60.50;;;;;;6139528;23;20925;-85
2021/07/11 07:38:06;;;;;;;1.40;1.30;;;24.20;60.40;;;;;;6140656;23;20357;-86
2021/07/11 07:41:00;;;;;;;2.33;1.60;;;24.20;60.40;;;;;;6140350;23;20377;-89
2021/07/11 07:43:29;;;;;;;2.17;1.90;;;24.20;60.40;;;;;;6139717;23;20388;-86
2021/07/11 07:46:00;;;;;;;2.10;1.70;;;24.20;60.50;;;;;;6138762;23;20415;-86
2021/07/11 07:51:28;;;;;;;3.47;1.60;;;24.20;60.70;;;;;;6107323;23;20427;-86
2021/07/11 07:53:54;;;;;;;1.53;1.40;;;24.20;60.80;;;;;;6140069;23;20381;-86
2021/07/11 07:56:20;;;;;;;1.60;1.40;;;24.20;60.80;;;;;;6139371;23;20424;-86
2021/07/11 07:58:46;;;;;;;1.70;1.43;;;24.20;60.80;;;;;;6139413;23;20389;-86
2021/07/11 08:01:12;;;;;;;1.70;1.50;;;24.20;60.90;;;;;;6143167;23;20157;-86
2021/07/11 08:03:38;;;;;;;1.83;1.43;;;24.20;60.80;;;;;;6139255;23;20397;-86
2021/07/11 08:06:08;;;;;;;1.63;1.53;;;24.20;60.80;;;;;;6139354;23;20595;-86
2021/07/11 08:08:38;;;;;;;1.70;1.60;;;24.30;60.90;;;;;;6141458;23;20368;-86
2021/07/11 08:11:10;;;;;;;1.90;1.73;;;24.20;60.80;;;;;;6139425;23;20381;-86
2021/07/11 08:13:37;;;;;;;2.43;1.70;;;24.20;60.80;;;;;;6140314;22;20389;-86
2021/07/11 08:16:06;;;;;;;2.97;1.40;;;24.20;60.80;;;;;;6139466;23;20383;-86
2021/07/11 08:52:12;;;;;;;2.10;1.90;;;24.30;60.60;;;;;;6151872;23;20396;-85
2021/07/11 09:00:56;;;;;;;1.80;1.70;;;24.20;60.30;;;;;;6124939;23;20421;-83
2021/07/11 09:03:34;;;;;;;2.10;1.60;;;24.30;60.40;;;;;;6178549;23;20364;-83
2021/07/11 09:09:59;;;;;;;2.07;1.87;;;24.30;60.50;;;;;;6031557;23;20360;-83
2021/07/11 09:12:36;;;;;;;1.90;1.60;;;24.30;60.50;;;;;;6033805;23;20400;-83
2021/07/11 09:15:38;;;;;;;2.27;1.60;;;24.20;60.40;;;;;;6027891;23;20376;-84
2021/07/11 09:29:25;;;;;;;2.00;1.63;;;24.30;60.60;;;;;;6036558;23;20412;-84
2021/07/11 09:52:03;;;;;;;1.87;1.50;;;24.30;60.40;;;;;;6008024;23;20454;-84
2021/07/11 10:17:41;;;;;;;;;;;;;;;;;;;;;
2021/07/11 10:23:44;;;;;;;1.43;1.33;;;24.30;60.00;;;;;;6116330;23;20486;-83
2021/07/11 10:26:16;;;;;;;2.50;1.60;;;24.40;60.30;;;;;;6059583;23;20393;-83
2021/07/11 10:29:24;;;;;;;2.93;1.63;;;24.40;60.10;;;;;;6145172;23;20390;-84
2021/07/11 10:31:55;;;;;;;3.20;1.43;;;24.40;60.00;;;;;;6201595;23;20355;-83
2021/07/11 10:34:42;;;;;;;2.40;1.80;;;24.30;60.00;;;;;;6200535;23;20414;-83
2021/07/11 10:40:41;;;;;;;1.80;1.53;;;24.40;59.90;;;;;;6181017;23;20409;-84
2021/07/11 10:43:13;;;;;;;1.80;1.57;;;24.40;60.00;;;;;;6200961;23;20362;-83
2021/07/11 10:49:40;;;;;;;1.70;1.20;;;24.40;59.90;;;;;;6112289;23;20490;-84
2021/07/11 10:52:26;;;;;;;1.50;1.40;;;24.40;59.90;;;;;;6156927;23;20470;-84
2021/07/11 11:11:23;;;;;;;5.87;1.80;;;24.40;60.00;;;;;;6198944;23;20416;-88
2021/07/11 11:23:50;;;;;;;3.00;1.60;;;24.40;60.00;;;;;;6187670;23;20394;-87
2021/07/11 11:27:01;;;;;;;;;;;;;;;;;;;;;
2021/07/11 11:30:06;;;;;;;1.70;1.60;;;24.40;60.00;;;;;;6199537;23;20383;-87
2021/07/11 11:32:48;;;;;;;;;;;;;;;;;;;;;
2021/07/11 11:45:50;;;;;;;2.53;2.23;;;24.40;59.90;;;;;;6060662;23;20367;-83
2021/07/11 11:48:23;;;;;;;2.30;2.10;;;24.40;60.00;;;;;;6033889;23;20427;-85
2021/07/11 11:51:00;;;;;;;4.17;1.73;;;24.40;60.60;;;;;;6033598;23;20384;-85
2021/07/11 11:53:50;;;;;;;3.00;2.13;;;24.50;59.90;;;;;;6031059;23;20383;-85
2021/07/11 11:56:24;;;;;;;3.43;1.40;;;24.50;59.80;;;;;;6029511;23;20388;-85
2021/07/11 11:59:20;;;;;;;2.73;1.67;;;24.50;59.80;;;;;;6031250;23;20420;-84
2021/07/11 12:02:01;;;;;;;2.43;2.10;;;24.60;59.80;;;;;;6030363;23;20442;-85
2021/07/11 12:04:33;;;;;;;2.70;2.10;;;24.60;59.80;;;;;;6031395;23;20390;-86
2021/07/11 12:08:01;;;;;;;;;;;;;;;;;;;;;
2021/07/11 12:13:40;;;;;;;3.43;2.50;;;24.70;59.80;;;;;;6082498;23;20359;-85
2021/07/11 12:16:56;;;;;;;3.53;2.17;;;24.70;59.80;;;;;;6111275;23;20409;-85
2021/07/11 12:19:30;;;;;;;3.00;2.23;;;24.70;59.70;;;;;;6162719;23;20375;-85
2021/07/11 12:22:33;;;;;;;5.27;3.20;;;24.80;59.70;;;;;;6202743;23;20430;-84
2021/07/11 12:28:35;;;;;;;6.83;2.77;;;24.80;59.70;;;;;;6204693;23;20531;-84
2021/07/11 12:31:34;;;;;;;;;;;;;;;;;;;;;
2021/07/11 12:40:39;;;;;;;5.57;3.00;;;24.90;59.50;;;;;;6204532;23;20363;-83
2021/07/11 12:47:19;;;;;;;3.80;3.33;;;24.90;59.50;;;;;;6205044;23;20473;-83
2021/07/11 12:50:28;;;;;;;4.80;3.67;;;24.90;59.50;;;;;;6176220;23;20387;-86
2021/07/11 12:52:55;;;;;;;4.60;3.23;;;25.00;59.60;;;;;;6163624;23;20486;-86
2021/07/11 12:55:22;;;;;;;3.80;3.37;;;24.90;59.50;;;;;;6154382;23;20408;-85
2021/07/11 12:58:12;;;;;;;4.30;3.27;;;24.90;59.50;;;;;;6169795;22;20412;-85
2021/07/11 13:00:53;;;;;;;;;;;;;;;;;;;;;
2021/07/11 13:03:39;;;;;;;7.17;4.57;;;25.00;59.50;;;;;;6202524;22;20359;-88
2021/07/11 13:06:14;;;;;;;6.20;4.10;;;25.00;59.40;;;;;;6176827;23;20698;-86
2021/07/11 13:22:13;;;;;;;7.40;4.70;;;25.00;59.30;;;;;;6309152;22;20463;-82
2021/07/11 13:24:48;;;;;;;10.10;4.90;;;25.10;59.30;;;;;;6307691;22;20412;-82
2021/07/11 13:29:58;;;;;;;9.00;5.57;;;25.10;59.30;;;;;;6301008;22;20476;-82
2021/07/11 13:32:24;;;;;;;9.97;5.57;;;25.10;59.40;;;;;;6302826;22;20467;-84
2021/07/11 13:34:57;;;;;;;8.40;4.67;;;25.10;59.40;;;;;;6298822;22;20383;-85
2021/07/11 13:37:38;;;;;;;10.23;5.57;;;25.10;59.40;;;;;;6298092;22;20379;-86
2021/07/11 13:40:07;;;;;;;7.93;5.40;;;25.20;59.40;;;;;;6299408;22;20381;-87
2021/07/11 13:42:41;;;;;;;8.83;5.23;;;25.10;59.30;;;;;;6298710;22;20392;-87
2021/07/11 13:45:22;;;;;;;10.60;5.63;;;25.10;59.30;;;;;;6300645;22;20391;-87
2021/07/11 13:48:03;;;;;;;7.33;4.90;;;25.20;59.40;;;;;;6300034;22;20423;-86
2021/07/11 13:50:46;;;;;;;7.87;5.10;;;25.20;59.30;;;;;;6299265;22;20378;-87
2021/07/11 13:53:19;;;;;;;6.20;4.83;;;25.20;59.40;;;;;;6299736;22;20375;-88
2021/07/11 13:55:56;;;;;;;9.57;5.33;;;25.20;59.30;;;;;;6300278;22;20375;-88
2021/07/11 14:05:21;;;;;;;7.53;4.70;;;25.20;59.30;;;;;;6327398;22;20343;-90
2021/07/11 14:08:09;;;;;;;;;;;;;;;;;;;;;
2021/07/11 14:10:49;;;;;;;;;;;;;;;;;;;;;
2021/07/11 14:13:34;;;;;;;7.77;5.03;;;25.20;59.50;;;;;;6327634;22;20348;-88
2021/07/11 14:16:04;;;;;;;9.70;5.30;;;25.20;59.50;;;;;;6326244;22;20374;-88
2021/07/11 14:18:34;;;;;;;7.77;4.40;;;25.20;59.40;;;;;;6299774;22;20380;-89
2021/07/11 14:21:23;;;;;;;5.47;4.87;;;25.30;60.00;;;;;;6298526;22;20383;-89
2021/07/11 14:26:45;;;;;;;5.43;4.53;;;25.30;59.40;;;;;;6303657;22;20419;-90
2021/07/11 14:29:58;;;;;;;9.40;5.20;;;25.30;59.50;;;;;;6299038;22;20437;-89
2021/07/11 14:36:25;;;;;;;5.80;4.90;;;25.30;59.40;;;;;;6199496;23;20423;-87
2021/07/11 14:39:17;;;;;;;7.37;4.87;;;25.30;59.40;;;;;;6174634;23;20382;-87
2021/07/11 14:41:48;;;;;;;8.50;5.07;;;25.30;59.40;;;;;;6171108;23;20789;-88
2021/07/11 14:44:37;;;;;;;6.93;4.40;;;25.30;59.40;;;;;;6148987;23;20395;-88
2021/07/11 14:47:17;;;;;;;6.20;3.97;;;25.30;59.30;;;;;;6198087;23;20502;-88
2021/07/11 14:50:06;;;;;;;7.07;4.20;;;25.30;59.30;;;;;;6173811;23;20414;-88
2021/07/11 14:52:35;;;;;;;6.50;3.97;;;25.30;59.20;;;;;;6173772;23;20446;-88
2021/07/11 14:55:03;;;;;;;7.83;4.57;;;25.30;59.30;;;;;;6174262;23;20389;-86
2021/07/11 14:57:34;;;;;;;5.00;3.97;;;25.30;59.30;;;;;;6174442;23;20383;-85
2021/07/11 15:00:06;;;;;;;4.17;3.77;;;25.30;59.20;;;;;;6173726;23;20826;-85
2021/07/11 15:02:33;;;;;;;6.40;4.00;;;25.30;59.20;;;;;;6199282;23;20379;-85
2021/07/11 15:14:12;;;;;;;10.03;4.67;;;25.40;59.20;;;;;;6325426;22;20439;-85
2021/07/11 15:17:04;;;;;;;5.77;3.37;;;25.30;59.20;;;;;;6296980;22;20379;-85
2021/07/11 15:19:34;;;;;;;5.10;4.13;;;25.30;59.20;;;;;;6294812;22;20387;-84
2021/07/11 15:22:01;;;;;;;4.73;3.93;;;25.30;59.10;;;;;;6295438;22;20822;-85
2021/07/11 15:24:29;;;;;;;4.37;3.07;;;25.30;59.60;;;;;;6298020;22;20376;-85
2021/07/11 15:26:58;;;;;;;3.70;3.23;;;25.30;59.00;;;;;;6292645;22;20423;-85
2021/07/11 15:29:24;;;;;;;7.80;3.77;;;25.40;59.10;;;;;;6295964;22;20457;-85
2021/07/11 15:31:54;;;;;;;5.43;3.27;;;25.40;59.00;;;;;;6295779;22;20383;-85
2021/07/11 15:34:53;;;;;;;5.10;3.33;;;25.40;59.00;;;;;;6295001;22;20153;-84
2021/07/11 15:37:26;;;;;;;4.67;3.33;;;25.40;58.90;;;;;;6295182;22;20429;-83
2021/07/11 15:39:55;;;;;;;3.53;2.47;;;25.40;59.00;;;;;;6296341;22;20433;-84
2021/07/11 15:42:25;;;;;;;4.67;2.50;;;25.40;58.90;;;;;;6328629;22;20364;-88
2021/07/11 15:44:55;;;;;;;3.37;2.20;;;25.40;58.90;;;;;;6298618;22;20391;-83
2021/07/11 15:47:28;;;;;;;4.60;2.17;;;25.40;58.80;;;;;;6296022;22;20438;-84
2021/07/11 15:49:55;;;;;;;2.40;2.17;;;25.40;58.80;;;;;;6295493;22;20402;-83
2021/07/11 15:52:22;;;;;;;3.13;2.20;;;25.40;58.80;;;;;;6294714;22;20918;-84
2021/07/11 15:54:48;;;;;;;4.43;2.20;;;25.40;58.70;;;;;;6295025;22;20379;-83
2021/07/11 15:57:15;;;;;;;3.93;2.17;;;25.40;58.70;;;;;;6294683;22;20482;-83
2021/07/11 15:59:54;;;;;;;;;;;;;;;;;;;;;
2021/07/11 16:02:24;;;;;;;2.03;1.80;;;25.40;58.70;;;;;;6324658;22;20358;-83
2021/07/11 16:04:50;;;;;;;2.40;2.20;;;25.40;58.60;;;;;;6296675;22;20379;-83
2021/07/11 16:08:12;;;;;;;3.17;2.87;;;25.40;59.20;;;;;;6323504;22;20818;-83
2021/07/11 16:24:42;;;;;;;1.97;1.60;;;25.40;58.70;;;;;;6055369;23;20475;-88
2021/07/11 16:28:14;;;;;;;3.10;1.70;;;25.40;58.70;;;;;;6028768;23;20502;-83
2021/07/11 16:31:14;;;;;;;2.37;1.80;;;25.40;58.70;;;;;;5923655;24;20403;-82
2021/07/11 16:44:11;;;;;;;3.00;1.63;;;25.30;58.60;;;;;;5885389;24;20373;-88
2021/07/11 16:50:54;;;;;;;2.10;1.70;;;25.40;58.60;;;;;;5867429;24;20488;-87
2021/07/11 17:00:50;;;;;;;;;;;;;;;;;;;;;
2021/07/11 17:14:31;;;;;;;2.10;1.73;;;25.30;58.50;;;;;;5907371;24;20413;-84
2021/07/11 17:30:26;;;;;;;1.90;1.50;;;25.20;58.70;;;;;;6037481;23;20375;-88
2021/07/11 17:37:11;;;;;;;2.87;1.80;;;25.10;58.60;;;;;;6167110;23;20699;-89
2021/07/11 17:53:26;;;;;;;3.77;2.40;;;25.10;58.60;;;;;;6233070;22;20361;-87
2021/07/11 17:56:07;;;;;;;;;;;;;;;;;;;;;
2021/07/11 17:58:39;;;;;;;2.53;1.63;;;25.00;58.60;;;;;;6233098;23;20378;-85
2021/07/11 18:01:06;;;;;;;5.70;2.07;;;25.00;58.60;;;;;;6233162;23;20373;-85
2021/07/11 18:03:58;;;;;;;2.50;2.30;;;25.00;58.60;;;;;;6207812;23;20474;-85
2021/07/11 18:06:48;;;;;;;2.80;2.23;;;25.00;58.50;;;;;;6205347;23;20375;-84
2021/07/11 18:09:19;;;;;;;1.97;1.80;;;25.00;58.60;;;;;;6220702;23;20382;-84
2021/07/11 18:11:56;;;;;;;2.27;1.73;;;25.00;58.60;;;;;;6205764;23;20393;-84
2021/07/11 18:14:24;;;;;;;1.67;1.57;;;25.00;58.60;;;;;;6204443;23;20506;-85
2021/07/11 18:17:04;;;;;;;2.10;1.50;;;25.00;58.60;;;;;;6202957;23;20385;-85
2021/07/11 18:19:56;;;;;;;2.43;1.90;;;25.00;58.50;;;;;;6183552;23;20401;-85
2021/07/11 18:22:46;;;;;;;2.33;1.83;;;25.00;58.50;;;;;;6163356;22;20388;-85
2021/07/11 18:25:46;;;;;;;;;;;;;;;;;;;;;
2021/07/11 18:28:42;;;;;;;;;;;;;;;;;;;;;
2021/07/11 18:31:22;;;;;;;2.27;1.83;;;24.90;59.20;;;;;;6176341;22;20349;-85
2021/07/11 18:34:29;;;;;;;;;;;;;;;;;;;;;
2021/07/11 18:43:40;;;;;;;2.30;2.10;;;24.90;58.80;;;;;;6328355;22;20438;-84
2021/07/11 18:46:21;;;;;;;1.77;1.57;;;24.90;58.90;;;;;;6299780;22;20880;-84
2021/07/11 18:49:03;;;;;;;2.40;2.20;;;24.90;59.00;;;;;;6301824;22;20383;-84
2021/07/11 18:51:32;;;;;;;2.70;2.20;;;24.90;59.00;;;;;;6300978;22;20383;-83
2021/07/11 18:53:59;;;;;;;2.33;2.13;;;24.90;59.50;;;;;;6300741;22;20379;-84
2021/07/11 18:56:35;;;;;;;2.47;2.10;;;24.90;58.90;;;;;;6300889;22;20438;-83
2021/07/11 18:59:15;;;;;;;;;;;;;;;;;;;;;
2021/07/11 19:01:48;;;;;;;3.40;2.73;;;24.90;59.00;;;;;;6299649;22;20379;-84
2021/07/11 19:07:47;;;;;;;9.33;4.90;;;24.90;59.00;;;;;;6324755;22;20442;-89
2021/07/11 19:10:23;;;;;;;9.53;5.43;;;24.80;59.00;;;;;;6293922;22;20383;-89
2021/07/11 19:12:52;;;;;;;7.77;5.83;;;24.80;59.00;;;;;;6294453;22;20821;-89
2021/07/11 19:15:22;;;;;;;6.17;4.73;;;24.80;59.00;;;;;;6293667;22;20800;-89
2021/07/11 19:17:48;;;;;;;6.87;5.40;;;24.80;59.00;;;;;;6293019;22;20391;-89
2021/07/11 19:20:21;;;;;;;6.30;4.93;;;24.80;59.00;;;;;;6293927;22;20708;-89
2021/07/11 19:22:54;;;;;;;5.40;4.67;;;24.80;59.10;;;;;;6294439;22;20387;-89
2021/07/11 19:38:39;;;;;;;3.33;3.03;;;24.70;59.20;;;;;;6202212;23;20451;-84
2021/07/11 19:44:21;;;;;;;3.27;2.93;;;24.70;59.40;;;;;;6203726;23;20496;-84
2021/07/11 19:50:45;;;;;;;3.37;2.97;;;24.70;59.40;;;;;;6203194;23;20395;-84
2021/07/11 19:54:11;;;;;;;3.27;2.97;;;24.60;59.30;;;;;;6175954;23;20387;-84
2021/07/11 19:57:20;;;;;;;3.13;2.70;;;24.60;59.40;;;;;;6118573;23;20399;-85